Details for BA - British Airways at EGLL




Go Back


Latest METAR
Local Time

EGLL 241320Z AUTO 08011KT 040V110 9999 NCD 06/M05 Q1021

24/02/2018, 13:32:45

Description
Results
BA - British Airways Logo
Number of Pilots based at EGLL
1 Pilots Based here
Number of BA - British Airways Flights Departed from EGLL
106 Flights Departed
Number of BA - British Airways Flights Arrived at EGLL
101 Flights Arrived
Number of BA - British Airways Schedules Departing from EGLL
521 Schedules
Number of BA - British Airways Schedules Arriving at EGLL
545 Schedules
Number of BA - British Airways Schedules Departing from EGLL availible today
316 Schedules Today
Number of BA - British Airways Schedules Arriving at EGLL availible today
315 Schedules Today
Average Landing Rate at EGLL
-193 fpm
BA - British Airways Average Landing Rate at EGLL
-180 fpm
Total Fuel Purchased at EGLL by BA - British Airways
1,130,862.28 kgs / 2,493,098.98 lbs

Pilots Based at EGLL


Pilot ID
Pilot Name
Pilot Rank
No. of Flights
No. of Flying Hours
Chris Nicholson
27
83.18
Content